createdAt,value
2024-03-19T00:00:00.162Z,66.37
2024-03-19T00:01:00.189Z,65.13
2024-03-19T00:02:00.239Z,64.95
2024-03-19T00:03:00.308Z,66.67
2024-03-19T00:04:00.393Z,65.78
2024-03-19T00:05:00.467Z,66.44
2024-03-19T00:06:00.488Z,65.70
2024-03-19T00:07:00.537Z,66.63
2024-03-19T00:08:00.607Z,66.74
2024-03-19T00:09:00.674Z,66.06
2024-03-19T00:10:00.747Z,66.74
2024-03-19T00:11:00.762Z,67.31
2024-03-19T00:12:00.837Z,66.83
2024-03-19T00:13:00.911Z,64.92
2024-03-19T00:14:00.975Z,65.44
2024-03-19T00:15:01.019Z,65.55
2024-03-19T00:16:01.176Z,64.50
2024-03-19T00:17:01.134Z,65.96
2024-03-19T00:18:01.205Z,66.05
2024-03-19T00:19:01.269Z,65.67
2024-03-19T00:20:01.336Z,64.72
2024-03-19T00:21:01.377Z,64.94
2024-03-19T00:22:01.433Z,68.88
2024-03-19T00:23:01.506Z,65.90
2024-03-19T00:24:01.551Z,65.86
2024-03-19T00:25:01.595Z,66.92
2024-03-19T00:26:01.686Z,67.07
2024-03-19T00:27:01.728Z,65.77
2024-03-19T00:28:01.776Z,64.88
2024-03-19T00:29:01.832Z,65.61
2024-03-19T00:30:01.967Z,66.83
2024-03-19T00:31:01.964Z,65.71
2024-03-19T00:32:01.982Z,66.32
2024-03-19T00:33:02.042Z,65.55
2024-03-19T00:34:02.091Z,66.83
2024-03-19T00:35:02.130Z,66.05
2024-03-19T00:36:02.205Z,66.02
2024-03-19T00:37:02.262Z,67.53
2024-03-19T00:38:02.296Z,65.14
2024-03-19T00:39:02.345Z,66.80
2024-03-19T00:40:02.405Z,66.35
2024-03-19T00:41:02.436Z,65.73
2024-03-19T00:42:02.489Z,65.79
2024-03-19T00:43:02.614Z,67.64
2024-03-19T00:44:02.613Z,66.88
2024-03-19T00:45:02.671Z,65.16
2024-03-19T00:46:02.747Z,67.56
2024-03-19T00:47:02.760Z,66.52
2024-03-19T00:48:02.817Z,66.71
2024-03-19T00:49:02.886Z,66.15
2024-03-19T00:50:02.929Z,65.09
2024-03-19T00:51:02.982Z,67.24
2024-03-19T00:52:03.056Z,67.42
2024-03-19T00:53:03.119Z,66.97
2024-03-19T00:54:03.133Z,67.99
2024-03-19T00:55:03.218Z,65.86
2024-03-19T00:56:03.263Z,67.91
2024-03-19T00:57:03.310Z,66.07
2024-03-19T00:58:03.386Z,68.87
2024-03-19T00:59:03.445Z,67.17
2024-03-19T01:00:03.476Z,67.75
2024-03-19T01:01:03.530Z,67.61
2024-03-19T01:02:03.596Z,68.51
2024-03-19T01:03:03.660Z,68.68
2024-03-19T01:04:05.640Z,68.03
2024-03-19T01:05:03.767Z,67.91
2024-03-19T01:06:03.833Z,67.27
2024-03-19T01:07:03.866Z,66.31
2024-03-19T01:08:03.914Z,69.18
2024-03-19T01:09:03.939Z,69.04
2024-03-19T01:10:04.012Z,66.50
2024-03-19T01:11:04.064Z,68.79
2024-03-19T01:12:04.078Z,68.83
2024-03-19T01:13:04.128Z,68.59
2024-03-19T01:14:04.180Z,66.88
2024-03-19T01:15:04.260Z,68.81
2024-03-19T01:16:04.316Z,68.31
2024-03-19T01:17:04.411Z,69.37
2024-03-19T01:18:04.861Z,68.86
2024-03-19T01:19:04.475Z,69.08
2024-03-19T01:20:04.545Z,69.50
2024-03-19T01:21:04.594Z,71.56
2024-03-19T01:22:04.696Z,71.57
2024-03-19T01:23:04.708Z,69.29
2024-03-19T01:24:04.822Z,70.08
2024-03-19T01:25:04.831Z,68.92
2024-03-19T01:26:04.886Z,71.18
2024-03-19T01:27:04.923Z,70.77
2024-03-19T01:28:04.988Z,69.74
2024-03-19T01:29:05.036Z,69.51
2024-03-19T01:30:05.109Z,69.26
2024-03-19T01:31:05.158Z,69.13
2024-03-19T01:32:05.178Z,68.63
2024-03-19T01:33:05.236Z,69.83
2024-03-19T01:34:05.307Z,68.89
2024-03-19T01:35:05.348Z,69.54
2024-03-19T01:36:05.417Z,68.62
2024-03-19T01:37:05.471Z,69.80
2024-03-19T01:38:05.513Z,71.51
2024-03-19T01:39:05.564Z,70.91
2024-03-19T01:40:05.625Z,70.42
2024-03-19T01:41:05.687Z,69.44
2024-03-19T01:42:05.857Z,68.21
2024-03-19T01:43:05.882Z,71.26
2024-03-19T01:44:05.875Z,72.10
2024-03-19T01:45:05.919Z,70.73
2024-03-19T01:46:05.963Z,72.13
2024-03-19T01:47:06.018Z,69.74
2024-03-19T01:48:06.072Z,71.34
2024-03-19T01:49:06.130Z,71.64
2024-03-19T01:50:06.173Z,70.81
2024-03-19T01:51:06.197Z,71.86
2024-03-19T01:52:06.263Z,70.46
2024-03-19T01:53:06.297Z,70.38
2024-03-19T01:54:06.355Z,71.48
2024-03-19T01:55:06.420Z,70.82
2024-03-19T01:56:06.433Z,70.88
2024-03-19T01:57:06.506Z,70.97
2024-03-19T01:58:06.566Z,71.54
2024-03-19T01:59:06.605Z,70.56
2024-03-19T02:00:06.677Z,72.63
2024-03-19T02:01:06.701Z,71.23
2024-03-19T02:02:06.752Z,73.75
2024-03-19T02:03:06.812Z,72.00
2024-03-19T02:04:06.848Z,70.01
2024-03-19T02:05:06.910Z,72.24
2024-03-19T02:06:06.954Z,71.91
2024-03-19T02:07:07.004Z,73.11
2024-03-19T02:08:07.030Z,72.77
2024-03-19T02:09:07.099Z,71.15
2024-03-19T02:10:07.139Z,74.01
2024-03-19T02:11:07.185Z,72.81
2024-03-19T02:12:07.228Z,72.38
2024-03-19T02:13:07.271Z,73.32
2024-03-19T02:14:07.331Z,72.43
2024-03-19T02:15:07.364Z,72.49
2024-03-19T02:16:07.423Z,73.38
2024-03-19T02:17:07.470Z,72.76
2024-03-19T02:18:07.517Z,73.65
2024-03-19T02:19:07.587Z,71.87
2024-03-19T02:20:07.648Z,72.88
2024-03-19T02:21:07.687Z,71.98
2024-03-19T02:22:07.734Z,72.72
2024-03-19T02:23:07.804Z,74.04
2024-03-19T02:24:07.838Z,73.35
2024-03-19T02:25:07.903Z,74.24
2024-03-19T02:26:07.915Z,74.47
2024-03-19T02:27:07.981Z,73.60
2024-03-19T02:28:08.028Z,72.95
2024-03-19T02:29:08.067Z,73.99
2024-03-19T02:30:08.114Z,74.66
2024-03-19T02:31:08.167Z,74.56
2024-03-19T02:32:08.201Z,74.38
2024-03-19T02:33:08.236Z,73.31
2024-03-19T02:34:08.304Z,74.49
2024-03-19T02:35:08.356Z,74.88
2024-03-19T02:36:08.402Z,74.29
2024-03-19T02:37:08.437Z,74.82
2024-03-19T02:38:08.504Z,74.53
2024-03-19T02:39:08.536Z,75.13
2024-03-19T02:40:08.591Z,74.25
2024-03-19T02:41:08.672Z,74.91
2024-03-19T02:42:08.664Z,76.01
2024-03-19T02:43:08.733Z,75.41
2024-03-19T02:44:08.778Z,75.62
2024-03-19T02:45:08.826Z,74.62
2024-03-19T02:46:08.894Z,75.69
2024-03-19T02:47:08.940Z,73.74
2024-03-19T02:48:08.980Z,76.73
2024-03-19T02:49:09.010Z,76.12
2024-03-19T02:50:09.098Z,75.35
2024-03-19T02:51:09.092Z,74.52
2024-03-19T02:52:09.143Z,75.47
2024-03-19T02:53:09.186Z,75.53
2024-03-19T02:54:09.259Z,76.98
2024-03-19T02:55:09.289Z,74.12
2024-03-19T02:56:09.340Z,75.50
2024-03-19T02:57:09.372Z,76.02
2024-03-19T02:58:09.457Z,75.98
2024-03-19T02:59:09.482Z,76.04
2024-03-19T03:00:09.532Z,76.93
2024-03-19T03:01:09.612Z,77.33
2024-03-19T03:02:09.618Z,77.44
2024-03-19T03:03:09.688Z,76.55
2024-03-19T03:04:09.707Z,77.11
2024-03-19T03:05:09.763Z,76.32
2024-03-19T03:06:09.839Z,77.59
2024-03-19T03:07:09.882Z,78.14
2024-03-19T03:08:10.414Z,77.27
2024-03-19T03:09:10.022Z,74.72
2024-03-19T03:10:10.048Z,75.22
2024-03-19T03:11:10.077Z,77.98
2024-03-19T03:12:10.135Z,77.39
2024-03-19T03:13:10.175Z,77.69
2024-03-19T03:14:10.220Z,77.60
2024-03-19T03:15:10.274Z,77.80
2024-03-19T03:16:10.288Z,76.54
2024-03-19T03:17:10.357Z,78.34
2024-03-19T03:18:10.422Z,76.54
2024-03-19T03:19:10.459Z,78.72
2024-03-19T03:20:10.483Z,78.37
2024-03-19T03:21:10.594Z,78.10
2024-03-19T03:22:10.599Z,77.11
2024-03-19T03:23:10.628Z,78.48
2024-03-19T03:24:10.681Z,78.58
2024-03-19T03:25:10.710Z,77.74
2024-03-19T03:26:10.744Z,79.71
2024-03-19T03:27:10.793Z,79.97
2024-03-19T03:28:10.875Z,78.26
2024-03-19T03:29:10.893Z,79.26
2024-03-19T03:30:10.972Z,78.94
2024-03-19T03:31:11.024Z,78.23
2024-03-19T03:32:11.058Z,80.23
2024-03-19T03:33:11.113Z,78.56
2024-03-19T03:34:11.136Z,78.93
2024-03-19T03:35:11.180Z,80.58
2024-03-19T03:36:11.209Z,78.19
2024-03-19T03:37:15.308Z,77.86
2024-03-19T03:38:12.293Z,77.99
2024-03-19T03:39:11.250Z,78.26
2024-03-19T03:40:11.261Z,78.88
2024-03-19T03:41:11.257Z,79.54
2024-03-19T03:42:11.261Z,80.97
2024-03-19T03:43:11.264Z,80.90
2024-03-19T03:44:11.288Z,81.23
2024-03-19T03:45:11.281Z,79.33
2024-03-19T03:46:11.260Z,80.33
2024-03-19T03:47:11.285Z,80.78
2024-03-19T03:48:11.260Z,80.87
2024-03-19T03:49:11.267Z,79.95
2024-03-19T03:50:11.267Z,80.82
2024-03-19T03:51:11.263Z,81.53
2024-03-19T03:52:11.327Z,79.71
2024-03-19T03:53:11.348Z,81.10
2024-03-19T03:54:11.471Z,82.15
2024-03-19T03:55:11.488Z,82.15
2024-03-19T03:56:11.504Z,82.47
2024-03-19T03:57:11.576Z,79.74
2024-03-19T03:58:11.604Z,80.97
2024-03-19T03:59:11.645Z,82.11
2024-03-19T04:00:11.720Z,81.87
2024-03-19T04:01:11.752Z,80.98
2024-03-19T04:02:11.797Z,82.47
2024-03-19T04:03:11.859Z,81.47
2024-03-19T04:04:11.911Z,79.17
2024-03-19T04:05:11.984Z,82.52
2024-03-19T04:06:12.032Z,82.14
2024-03-19T04:07:12.066Z,81.52
2024-03-19T04:08:12.077Z,82.58
2024-03-19T04:09:12.144Z,81.76
2024-03-19T04:10:12.142Z,80.40
2024-03-19T04:11:12.193Z,81.43
2024-03-19T04:12:12.248Z,81.89
2024-03-19T04:13:12.277Z,82.20
2024-03-19T04:14:12.352Z,82.52
2024-03-19T04:15:12.364Z,83.79
2024-03-19T04:16:12.389Z,82.99
2024-03-19T04:17:12.456Z,83.05
2024-03-19T04:18:12.498Z,83.27
2024-03-19T04:19:12.542Z,81.49
2024-03-19T04:20:12.601Z,83.09
2024-03-19T04:21:12.635Z,81.71
2024-03-19T04:22:12.700Z,81.77
2024-03-19T04:23:12.761Z,83.23
2024-03-19T04:24:12.783Z,81.13
2024-03-19T04:25:12.849Z,83.33
2024-03-19T04:26:12.907Z,82.23
2024-03-19T04:27:12.922Z,81.07
2024-03-19T04:28:12.986Z,81.94
2024-03-19T04:29:13.020Z,83.49
2024-03-19T04:30:13.070Z,82.03
2024-03-19T04:31:13.096Z,82.82
2024-03-19T04:32:13.177Z,82.12
2024-03-19T04:33:13.202Z,82.67
2024-03-19T04:34:20.974Z,50.00
2024-03-19T04:35:20.962Z,50.00
2024-03-19T04:36:20.968Z,50.00
2024-03-19T04:37:20.982Z,50.00
2024-03-19T04:38:21.003Z,50.00
2024-03-19T04:39:20.977Z,50.43
2024-03-19T04:40:20.986Z,50.96
2024-03-19T04:41:20.976Z,51.25
2024-03-19T04:42:20.992Z,50.30
2024-03-19T04:43:20.998Z,50.39
2024-03-19T04:44:20.996Z,52.52
2024-03-19T04:45:20.976Z,50.69
2024-03-19T04:46:21.006Z,51.09
2024-03-19T04:47:21.003Z,52.72
2024-03-19T04:48:20.997Z,50.81
2024-03-19T04:49:20.999Z,51.52
2024-03-19T04:50:20.992Z,51.93
2024-03-19T04:51:21.028Z,51.73
2024-03-19T04:52:20.984Z,51.28
2024-03-19T04:53:20.991Z,51.65
2024-03-19T04:54:21.003Z,52.78
2024-03-19T04:55:21.004Z,52.11
2024-03-19T04:56:21.047Z,52.20
2024-03-19T04:57:21.011Z,50.84
2024-03-19T04:58:21.023Z,51.04
2024-03-19T04:59:21.026Z,51.10
2024-03-19T05:00:21.018Z,51.12
2024-03-19T05:01:21.012Z,51.54
2024-03-19T05:02:21.021Z,52.04
2024-03-19T05:03:21.024Z,51.29
2024-03-19T05:04:21.024Z,51.36
2024-03-19T05:05:21.045Z,53.68
2024-03-19T05:06:21.014Z,52.48
2024-03-19T05:07:21.032Z,50.29
2024-03-19T05:08:21.620Z,53.18
2024-03-19T05:09:21.030Z,51.75
2024-03-19T05:10:21.034Z,52.38
2024-03-19T05:11:21.041Z,53.46
2024-03-19T05:12:21.078Z,53.38
2024-03-19T05:13:21.032Z,52.79
2024-03-19T05:14:21.044Z,52.41
2024-03-19T05:15:21.029Z,53.45
2024-03-19T05:16:21.043Z,54.17
2024-03-19T05:17:21.037Z,54.31
2024-03-19T05:18:21.042Z,53.71
2024-03-19T05:19:21.021Z,51.03
2024-03-19T05:20:21.031Z,54.83
2024-03-19T05:21:21.050Z,50.97
2024-03-19T05:22:21.051Z,50.00
2024-03-19T05:23:21.059Z,53.34
2024-03-19T05:24:21.055Z,53.70
2024-03-19T05:25:21.050Z,51.12
2024-03-19T05:26:21.034Z,54.85
2024-03-19T05:27:21.041Z,55.60
2024-03-19T05:28:21.064Z,55.06
2024-03-19T05:29:21.039Z,55.94
2024-03-19T05:30:21.047Z,55.40
2024-03-19T05:31:21.062Z,55.04
2024-03-19T05:32:21.045Z,54.86
2024-03-19T05:33:21.068Z,54.81
2024-03-19T05:34:21.045Z,54.26
2024-03-19T05:35:21.078Z,53.45
2024-03-19T05:36:21.064Z,54.01
2024-03-19T05:37:21.055Z,56.05
2024-03-19T05:38:21.087Z,54.28
2024-03-19T05:39:21.091Z,54.33
2024-03-19T05:40:21.075Z,54.57
2024-03-19T05:41:21.076Z,54.51
2024-03-19T05:42:21.068Z,52.85
2024-03-19T05:43:21.080Z,54.06
2024-03-19T05:44:21.098Z,53.37
2024-03-19T05:45:21.080Z,55.94
2024-03-19T05:46:21.069Z,52.99
2024-03-19T05:47:21.067Z,53.11
2024-03-19T05:48:21.173Z,55.07
2024-03-19T05:49:21.191Z,55.46
2024-03-19T05:50:21.268Z,56.19
2024-03-19T05:51:21.351Z,56.48
2024-03-19T05:52:21.408Z,51.45
2024-03-19T05:53:24.404Z,55.12
2024-03-19T05:54:21.435Z,54.70
2024-03-19T05:55:21.419Z,56.03
2024-03-19T05:56:21.431Z,54.38
2024-03-19T05:57:21.443Z,56.05
2024-03-19T05:58:21.428Z,55.64
2024-03-19T05:59:21.440Z,50.88
2024-03-19T06:00:21.448Z,54.01
2024-03-19T06:01:21.462Z,54.37
2024-03-19T06:02:21.437Z,55.15
2024-03-19T06:03:21.461Z,56.08
2024-03-19T06:04:21.476Z,57.33
2024-03-19T06:05:21.442Z,55.52
2024-03-19T06:06:21.470Z,56.80
2024-03-19T06:07:21.468Z,57.43
2024-03-19T06:08:21.490Z,56.87
2024-03-19T06:09:21.487Z,56.28
2024-03-19T06:10:21.478Z,54.40
2024-03-19T06:11:21.453Z,52.22
2024-03-19T06:12:21.475Z,56.29
2024-03-19T06:13:21.485Z,53.42
2024-03-19T06:14:21.455Z,54.40
2024-03-19T06:15:21.474Z,50.58
2024-03-19T06:16:21.502Z,54.73
2024-03-19T06:17:21.474Z,50.00
2024-03-19T06:18:21.476Z,56.76
2024-03-19T06:19:26.164Z,55.35
2024-03-19T06:20:22.491Z,55.49
2024-03-19T06:21:21.506Z,51.93
2024-03-19T06:22:21.508Z,56.82
2024-03-19T06:23:21.478Z,57.32
2024-03-19T06:24:21.485Z,57.29
2024-03-19T06:25:21.521Z,56.97
2024-03-19T06:26:21.483Z,58.63
2024-03-19T06:27:21.498Z,56.15
2024-03-19T06:28:21.524Z,51.54
2024-03-19T06:29:21.492Z,55.41
2024-03-19T06:30:21.502Z,53.03
2024-03-19T06:31:21.523Z,58.18
2024-03-19T06:32:21.531Z,55.80
2024-03-19T06:33:21.606Z,59.00
2024-03-19T06:34:21.670Z,57.91
2024-03-19T06:35:21.695Z,51.38
2024-03-19T06:36:21.766Z,59.11
2024-03-19T06:37:21.793Z,53.98
2024-03-19T06:38:21.852Z,57.59
2024-03-19T06:39:21.885Z,57.49
2024-03-19T06:40:21.946Z,57.62
2024-03-19T06:41:22.017Z,52.78
2024-03-19T06:42:22.089Z,55.90
2024-03-19T06:43:22.099Z,55.61
2024-03-19T06:44:22.128Z,58.56
2024-03-19T06:45:22.202Z,58.35
2024-03-19T06:46:22.218Z,60.32
2024-03-19T06:47:22.239Z,52.31
2024-03-19T06:48:22.300Z,56.96
2024-03-19T06:49:22.383Z,57.02
2024-03-19T06:50:22.387Z,58.39
2024-03-19T06:51:22.453Z,58.44
2024-03-19T06:52:22.451Z,57.58
2024-03-19T06:53:22.495Z,58.48
2024-03-19T06:54:22.556Z,54.74
2024-03-19T06:55:22.588Z,59.84
2024-03-19T06:56:22.651Z,61.42
2024-03-19T06:57:22.681Z,59.27
2024-03-19T06:58:22.731Z,61.65
2024-03-19T06:59:22.761Z,55.28
2024-03-19T07:00:22.825Z,55.92
2024-03-19T07:01:22.876Z,56.95
2024-03-19T07:02:22.927Z,60.28
2024-03-19T07:03:22.988Z,60.40
2024-03-19T07:04:23.057Z,57.37
2024-03-19T07:05:23.101Z,58.48
2024-03-19T07:06:23.167Z,56.27
2024-03-19T07:07:23.212Z,55.34
2024-03-19T07:08:23.288Z,56.91
2024-03-19T07:09:23.360Z,55.42
2024-03-19T07:10:23.401Z,58.21
2024-03-19T07:11:23.495Z,54.93
2024-03-19T07:12:23.510Z,58.29
2024-03-19T07:13:23.631Z,55.31
2024-03-19T07:14:23.684Z,61.25
2024-03-19T07:15:23.713Z,51.73
2024-03-19T07:16:23.781Z,57.08
2024-03-19T07:17:24.275Z,54.55
2024-03-19T07:18:23.896Z,56.28
2024-03-19T07:19:23.951Z,53.90
2024-03-19T07:20:24.018Z,52.43
2024-03-19T07:21:24.071Z,59.49
2024-03-19T07:22:24.160Z,57.70
2024-03-19T07:23:24.225Z,54.67
2024-03-19T07:24:24.309Z,59.71
2024-03-19T07:25:24.343Z,57.90
2024-03-19T07:26:24.419Z,56.15
2024-03-19T07:27:24.457Z,59.96
2024-03-19T07:28:24.522Z,59.35
2024-03-19T07:29:24.602Z,55.10
2024-03-19T07:30:24.671Z,57.14
2024-03-19T07:31:24.698Z,59.94
2024-03-19T07:32:24.795Z,59.01
2024-03-19T07:33:24.867Z,53.00
2024-03-19T07:34:24.921Z,55.17
2024-03-19T07:35:24.973Z,57.98
2024-03-19T07:36:25.118Z,53.19
2024-03-19T07:37:25.052Z,58.25
2024-03-19T07:38:25.120Z,51.43
2024-03-19T07:39:25.190Z,57.65
2024-03-19T07:40:25.242Z,60.90
2024-03-19T07:41:25.298Z,57.38
2024-03-19T07:42:25.353Z,50.71
2024-03-19T07:43:25.431Z,59.58
2024-03-19T07:44:25.475Z,59.26
2024-03-19T07:45:25.542Z,62.40
2024-03-19T07:46:25.580Z,56.82
2024-03-19T07:47:25.704Z,53.28
2024-03-19T07:48:25.740Z,58.18
2024-03-19T07:49:25.771Z,62.53
2024-03-19T07:50:25.857Z,56.97
2024-03-19T07:51:25.857Z,55.40
2024-03-19T07:52:25.888Z,58.20
2024-03-19T07:53:25.955Z,65.58
2024-03-19T07:54:26.076Z,59.27
2024-03-19T07:55:26.085Z,52.27
2024-03-19T07:56:26.090Z,60.39
2024-03-19T07:57:26.187Z,56.65
2024-03-19T07:58:26.213Z,55.86
2024-03-19T07:59:26.293Z,57.54
2024-03-19T08:00:26.381Z,56.65
2024-03-19T08:01:26.393Z,56.63
2024-03-19T08:02:26.437Z,53.58
2024-03-19T08:03:26.490Z,55.49
2024-03-19T08:04:26.587Z,54.80
2024-03-19T08:05:27.858Z,61.98
2024-03-19T08:06:26.659Z,53.59
2024-03-19T08:07:26.737Z,56.52
2024-03-19T08:08:26.829Z,61.88
2024-03-19T08:09:26.857Z,55.11
2024-03-19T08:10:26.898Z,60.36
2024-03-19T08:11:26.991Z,57.93
2024-03-19T08:12:27.998Z,56.56
2024-03-19T08:13:27.069Z,53.60
2024-03-19T08:14:27.120Z,55.90
2024-03-19T08:15:27.180Z,60.92
2024-03-19T08:16:27.219Z,54.36
2024-03-19T08:17:27.272Z,60.42
2024-03-19T08:18:27.318Z,53.49
2024-03-19T08:19:27.396Z,56.46
2024-03-19T08:20:27.440Z,52.20
2024-03-19T08:21:27.507Z,56.49
2024-03-19T08:22:27.516Z,58.15
2024-03-19T08:23:27.562Z,53.00
2024-03-19T08:24:27.603Z,55.93
2024-03-19T08:25:27.656Z,56.21
2024-03-19T08:26:27.705Z,61.37
2024-03-19T08:27:27.751Z,56.03
2024-03-19T08:28:27.789Z,56.17
2024-03-19T08:29:27.852Z,53.51
2024-03-19T08:30:27.898Z,53.86
2024-03-19T08:31:27.944Z,53.29
2024-03-19T08:32:27.986Z,54.76
2024-03-19T08:33:28.028Z,57.16
2024-03-19T08:34:28.084Z,56.38
2024-03-19T08:35:28.135Z,58.99
2024-03-19T08:36:28.198Z,55.49
2024-03-19T08:37:28.243Z,57.42
2024-03-19T08:38:28.252Z,50.71
2024-03-19T08:39:28.280Z,56.01
2024-03-19T08:40:28.329Z,54.01
2024-03-19T08:41:28.365Z,53.73
2024-03-19T08:42:28.394Z,54.87
2024-03-19T08:43:28.421Z,54.47
2024-03-19T08:44:28.471Z,55.01
2024-03-19T08:45:28.503Z,54.78
2024-03-19T08:46:28.527Z,54.17
2024-03-19T08:47:28.596Z,52.82
2024-03-19T08:48:28.652Z,54.23
2024-03-19T08:49:28.766Z,55.85
2024-03-19T08:50:28.688Z,50.68
2024-03-19T08:51:28.711Z,54.38
2024-03-19T08:52:28.733Z,54.24
2024-03-19T08:53:28.781Z,55.01
2024-03-19T08:54:28.816Z,57.18
2024-03-19T08:55:28.891Z,56.53
2024-03-19T08:56:28.884Z,55.03
2024-03-19T08:57:28.917Z,55.15
2024-03-19T08:58:28.932Z,54.64
2024-03-19T08:59:28.974Z,57.08
2024-03-19T09:00:29.013Z,54.07
2024-03-19T09:01:29.039Z,52.97
2024-03-19T09:02:29.059Z,52.50
2024-03-19T09:03:29.118Z,53.30
2024-03-19T09:04:29.169Z,53.58
2024-03-19T09:05:29.174Z,52.92
2024-03-19T09:06:29.201Z,53.49
2024-03-19T09:07:29.197Z,53.90
2024-03-19T09:08:29.227Z,53.83
2024-03-19T09:09:29.310Z,54.16
2024-03-19T09:10:29.280Z,51.85
2024-03-19T09:11:29.286Z,52.58
2024-03-19T09:12:29.332Z,52.17
2024-03-19T09:13:29.339Z,52.63
2024-03-19T09:14:29.357Z,51.51
2024-03-19T09:15:29.372Z,53.07
2024-03-19T09:16:29.480Z,53.34
2024-03-19T09:17:29.451Z,53.19
2024-03-19T09:18:29.466Z,51.86
2024-03-19T09:19:29.479Z,52.20
2024-03-19T09:20:29.496Z,52.66
2024-03-19T09:21:29.736Z,52.70
2024-03-19T09:22:29.542Z,52.54
2024-03-19T09:23:29.561Z,52.41
2024-03-19T09:24:29.577Z,51.09
2024-03-19T09:25:29.593Z,52.17
2024-03-19T09:26:29.618Z,51.59
2024-03-19T09:27:29.680Z,54.93
2024-03-19T09:28:29.703Z,51.79
2024-03-19T09:29:29.775Z,54.14
2024-03-19T09:30:29.828Z,50.16
2024-03-19T09:31:29.879Z,52.27
2024-03-19T09:32:29.963Z,56.70
2024-03-19T09:33:29.949Z,53.58
2024-03-19T09:34:30.025Z,52.99
2024-03-19T09:35:30.066Z,51.45
2024-03-19T09:36:30.121Z,52.77
2024-03-19T09:37:30.146Z,52.45
2024-03-19T09:38:30.206Z,51.98
2024-03-19T09:39:30.292Z,53.09
2024-03-19T09:40:30.353Z,53.46
2024-03-19T09:41:30.415Z,51.93
2024-03-19T09:42:30.526Z,51.76
2024-03-19T09:43:30.522Z,50.82
2024-03-19T09:44:30.580Z,51.80
2024-03-19T09:45:30.637Z,55.75
2024-03-19T09:46:30.671Z,52.40
2024-03-19T09:47:30.767Z,53.45
2024-03-19T09:48:30.777Z,54.23
2024-03-19T09:49:30.821Z,53.62
2024-03-19T09:50:30.849Z,54.27
2024-03-19T09:51:30.899Z,52.38
2024-03-19T09:52:30.926Z,53.92
2024-03-19T09:53:30.953Z,53.71
2024-03-19T09:54:30.970Z,52.87
2024-03-19T09:55:31.044Z,53.76
2024-03-19T09:56:31.061Z,54.63
2024-03-19T09:57:31.076Z,55.31
2024-03-19T09:58:31.130Z,53.12
2024-03-19T09:59:31.154Z,53.39
2024-03-19T10:00:31.182Z,52.44
2024-03-19T10:01:31.230Z,50.55
2024-03-19T10:02:31.302Z,51.54
2024-03-19T10:03:31.287Z,53.88
2024-03-19T10:04:31.292Z,52.12
2024-03-19T10:05:31.381Z,54.64
2024-03-19T10:06:31.371Z,53.71
2024-03-19T10:07:31.402Z,55.94
2024-03-19T10:08:31.425Z,52.95
2024-03-19T10:09:31.453Z,55.47
2024-03-19T10:10:31.471Z,52.96
2024-03-19T10:11:31.556Z,56.15
2024-03-19T10:12:31.525Z,53.86
2024-03-19T10:13:31.550Z,56.28
2024-03-19T10:14:31.652Z,53.39
2024-03-19T10:15:31.618Z,53.87
2024-03-19T10:16:31.637Z,56.14
2024-03-19T10:17:31.689Z,54.49
2024-03-19T10:18:31.712Z,56.28
2024-03-19T10:19:31.725Z,54.32
2024-03-19T10:20:31.816Z,54.14
2024-03-19T10:21:31.824Z,55.15
2024-03-19T10:22:31.839Z,52.74
2024-03-19T10:23:31.897Z,53.38
2024-03-19T10:24:31.928Z,56.25
2024-03-19T10:25:32.041Z,53.74
2024-03-19T10:26:32.063Z,53.73
2024-03-19T10:28:25.557Z,50.00
2024-03-19T10:29:25.572Z,50.00
2024-03-19T10:30:25.559Z,50.00
2024-03-19T10:31:25.665Z,50.00
2024-03-19T10:32:26.742Z,50.00
2024-03-19T10:33:25.593Z,52.95
2024-03-19T10:34:25.573Z,50.31
2024-03-19T10:35:25.585Z,50.00
2024-03-19T10:36:25.578Z,53.37
2024-03-19T10:37:25.567Z,50.67
2024-03-19T10:38:32.792Z,50.42
2024-03-19T10:39:26.591Z,50.54
2024-03-19T10:40:25.581Z,51.18
2024-03-19T10:41:25.586Z,50.44
2024-03-19T10:42:25.601Z,50.79
2024-03-19T10:43:25.661Z,52.98
2024-03-19T10:44:25.587Z,52.57
2024-03-19T10:45:25.623Z,53.93
2024-03-19T10:46:25.585Z,52.21
2024-03-19T10:47:25.649Z,54.63
2024-03-19T10:48:25.628Z,53.81
2024-03-19T10:49:25.715Z,54.02
2024-03-19T10:50:25.745Z,53.47
2024-03-19T10:51:25.780Z,53.10
2024-03-19T10:52:25.857Z,52.04
2024-03-19T10:53:25.882Z,52.25
2024-03-19T10:54:25.936Z,50.49
2024-03-19T10:55:25.979Z,55.33
2024-03-19T10:56:26.022Z,53.37
2024-03-19T10:57:26.082Z,50.96
2024-03-19T10:58:26.123Z,52.39
2024-03-19T10:59:26.215Z,54.70
2024-03-19T11:00:26.206Z,53.96
2024-03-19T11:01:26.219Z,52.52
2024-03-19T11:02:26.233Z,51.28
2024-03-19T11:03:26.236Z,53.59
2024-03-19T11:04:26.277Z,51.62
2024-03-19T11:05:26.298Z,52.57
2024-03-19T11:06:26.365Z,52.74
2024-03-19T11:07:26.392Z,53.81
2024-03-19T11:08:26.405Z,53.92
2024-03-19T11:09:26.419Z,51.55
2024-03-19T11:10:26.433Z,52.05
2024-03-19T11:11:26.462Z,51.75
2024-03-19T11:12:26.513Z,53.29
2024-03-19T11:13:26.546Z,53.76
2024-03-19T11:14:26.544Z,53.10
2024-03-19T11:15:26.585Z,53.70
2024-03-19T11:16:26.622Z,53.43
2024-03-19T11:17:26.710Z,54.75
2024-03-19T11:18:26.642Z,53.84
2024-03-19T11:19:26.690Z,53.36
2024-03-19T11:20:26.744Z,54.46
2024-03-19T11:21:26.758Z,52.65
2024-03-19T11:22:26.766Z,52.45
2024-03-19T11:23:26.851Z,53.37
2024-03-19T11:24:26.850Z,54.04
2024-03-19T11:25:26.871Z,54.85
2024-03-19T11:26:26.902Z,54.78
2024-03-19T11:27:26.946Z,53.97
2024-03-19T11:28:27.012Z,53.79
2024-03-19T11:29:27.034Z,54.26
2024-03-19T11:30:27.049Z,54.06
2024-03-19T11:31:27.088Z,54.55
2024-03-19T11:32:27.140Z,54.16
2024-03-19T11:33:27.167Z,53.99
2024-03-19T11:34:27.187Z,54.92
2024-03-19T11:35:27.221Z,53.75
2024-03-19T11:36:27.269Z,54.96
2024-03-19T11:37:27.287Z,52.54
2024-03-19T11:38:27.322Z,53.52
2024-03-19T11:39:27.370Z,55.09
2024-03-19T11:40:27.393Z,54.09
2024-03-19T11:41:33.122Z,51.61
2024-03-19T11:42:28.433Z,51.76
2024-03-19T11:43:27.423Z,52.33
2024-03-19T11:44:27.441Z,51.95
2024-03-19T11:45:27.437Z,52.29
2024-03-19T11:46:27.434Z,52.59
2024-03-19T11:47:27.452Z,52.78
2024-03-19T11:48:27.454Z,52.92
2024-03-19T11:49:27.456Z,55.10
2024-03-19T11:50:27.452Z,54.66
2024-03-19T11:51:27.442Z,55.52
2024-03-19T11:52:27.472Z,54.07
2024-03-19T11:53:27.447Z,53.70
2024-03-19T11:54:27.466Z,54.92
2024-03-19T11:55:27.443Z,52.72
2024-03-19T11:56:27.459Z,55.32
2024-03-19T11:57:27.504Z,52.59
2024-03-19T11:58:27.533Z,52.88
2024-03-19T11:59:27.561Z,54.49
2024-03-19T12:00:27.620Z,52.22
2024-03-19T12:01:27.646Z,52.94
2024-03-19T12:02:27.713Z,54.41
2024-03-19T12:03:27.763Z,52.91
2024-03-19T12:04:27.788Z,53.28
2024-03-19T12:05:27.855Z,54.50
2024-03-19T12:06:27.921Z,51.06
2024-03-19T12:07:27.954Z,51.04
2024-03-19T12:08:27.976Z,52.03
2024-03-19T12:09:28.032Z,52.60
2024-03-19T12:10:28.065Z,54.08
2024-03-19T12:11:28.131Z,50.00
2024-03-19T12:12:28.152Z,54.64
2024-03-19T12:13:28.200Z,54.39
2024-03-19T12:14:28.245Z,53.12
2024-03-19T12:15:28.352Z,54.44
2024-03-19T12:16:28.345Z,53.71
2024-03-19T12:17:28.365Z,50.89
2024-03-19T12:18:28.428Z,52.47
2024-03-19T12:19:28.482Z,52.77
2024-03-19T12:20:28.515Z,52.23
2024-03-19T12:21:28.565Z,50.74
2024-03-19T12:22:28.597Z,52.48
2024-03-19T12:23:28.661Z,53.61
2024-03-19T12:24:28.722Z,53.35
2024-03-19T12:25:28.742Z,54.75
2024-03-19T12:26:28.786Z,54.12
2024-03-19T12:27:28.842Z,53.91
2024-03-19T12:28:28.886Z,53.41
2024-03-19T12:29:28.938Z,52.18
2024-03-19T12:30:28.994Z,54.28
2024-03-19T12:31:29.047Z,53.30
2024-03-19T12:32:29.134Z,55.22
2024-03-19T12:33:29.186Z,51.63
2024-03-19T12:34:29.230Z,53.29
2024-03-19T12:35:29.277Z,51.43
2024-03-19T12:36:29.310Z,53.25
2024-03-19T12:37:29.388Z,52.15
2024-03-19T12:38:29.440Z,54.14
2024-03-19T12:39:29.497Z,51.21
2024-03-19T12:40:29.553Z,52.71
2024-03-19T12:41:29.602Z,52.60
2024-03-19T12:42:29.674Z,53.41
2024-03-19T12:43:29.782Z,53.89
2024-03-19T12:44:29.763Z,52.35
2024-03-19T12:45:29.866Z,53.86
2024-03-19T12:46:29.887Z,53.81
2024-03-19T12:47:29.973Z,53.06
2024-03-19T12:48:30.002Z,53.72
2024-03-19T12:49:30.049Z,51.05
2024-03-19T12:50:30.121Z,53.53
2024-03-19T12:51:30.187Z,52.36
2024-03-19T12:52:30.219Z,53.24
2024-03-19T12:53:30.286Z,54.16